Terminal Aerodrome Forecast
Issued by NWS

Home | Current Version | Previous Version | Text Only | Print | Product List | Glossary On
Versions: 1 2 3 4 5 6 7 8 9 10 11 12
000
FTUS44 KSJT 161120
TAFJCT
TAF
KJCT 161120Z 1612/1712 VRB05KT P6SM BKN250
     FM161700 18008KT 6SM -RA OVC015
     FM170100 17005KT 4SM BR OVC005
     FM170900 25002KT 6SM BR OVC015=

USA.gov is the U.S. government's official web portal to all federal, state and local government web resources and services.